Terminal Aerodrome Forecast
Issued by NWS Sterling, VA

Home | Current Version | Previous Version | Text Only | Print | Product List | Glossary On
Versions: 1 2 3 4 5 6 7 8 9 10 11 12 13 14 15 16
000
FTUS41 KLWX 010539
TAFMRB
TAF
KMRB 010539Z 0106/0206 VRB03KT P6SM BKN080
     FM011200 15006KT 2SM -SN BKN015 OVC025
     FM011800 17007KT 2SM -FZRASNPL BR BKN010 OVC020
     FM012100 16006KT 4SM -FZRA BR BKN015 OVC020
     FM020000 VRB04KT P6SM SCT050=

USA.gov is the U.S. government's official web portal to all federal, state and local government web resources and services.